sensor_id;sensor_type;location;lat;lon;timestamp;P1;durP1;ratioP1;P2;durP2;ratioP2
5977;SDS011;3015;51.390;12.256;2022-11-20T00:00:37;28.63;;;18.27;;
5977;SDS011;3015;51.390;12.256;2022-11-20T00:03:03;24.80;;;17.50;;
5977;SDS011;3015;51.390;12.256;2022-11-20T00:05:28;22.57;;;16.67;;
5977;SDS011;3015;51.390;12.256;2022-11-20T00:07:57;24.38;;;17.05;;
5977;SDS011;3015;51.390;12.256;2022-11-20T00:10:22;23.37;;;17.37;;
5977;SDS011;3015;51.390;12.256;2022-11-20T00:12:48;19.63;;;15.47;;
5977;SDS011;3015;51.390;12.256;2022-11-20T00:15:13;20.23;;;14.60;;
5977;SDS011;3015;51.390;12.256;2022-11-20T00:17:39;24.47;;;16.53;;
5977;SDS011;3015;51.390;12.256;2022-11-20T00:20:05;25.67;;;17.03;;
5977;SDS011;3015;51.390;12.256;2022-11-20T00:22:31;22.83;;;15.98;;
5977;SDS011;3015;51.390;12.256;2022-11-20T00:24:56;19.93;;;15.50;;
5977;SDS011;3015;51.390;12.256;2022-11-20T00:27:22;16.92;;;13.77;;
5977;SDS011;3015;51.390;12.256;2022-11-20T00:29:48;26.07;;;17.47;;
5977;SDS011;3015;51.390;12.256;2022-11-20T00:32:14;23.33;;;16.37;;
5977;SDS011;3015;51.390;12.256;2022-11-20T00:34:39;23.57;;;15.57;;
5977;SDS011;3015;51.390;12.256;2022-11-20T00:37:05;20.10;;;15.70;;
5977;SDS011;3015;51.390;12.256;2022-11-20T00:39:31;19.50;;;14.07;;
5977;SDS011;3015;51.390;12.256;2022-11-20T00:41:56;20.90;;;15.63;;
5977;SDS011;3015;51.390;12.256;2022-11-20T00:44:22;21.80;;;14.90;;
5977;SDS011;3015;51.390;12.256;2022-11-20T00:46:47;19.90;;;15.57;;
5977;SDS011;3015;51.390;12.256;2022-11-20T00:49:13;25.47;;;15.47;;
5977;SDS011;3015;51.390;12.256;2022-11-20T00:51:39;20.20;;;14.20;;
5977;SDS011;3015;51.390;12.256;2022-11-20T00:54:04;17.83;;;13.67;;
5977;SDS011;3015;51.390;12.256;2022-11-20T00:56:30;22.20;;;13.73;;
5977;SDS011;3015;51.390;12.256;2022-11-20T00:58:58;28.20;;;15.20;;
5977;SDS011;3015;51.390;12.256;2022-11-20T01:01:25;23.42;;;16.55;;
5977;SDS011;3015;51.390;12.256;2022-11-20T01:03:54;23.85;;;15.57;;
5977;SDS011;3015;51.390;12.256;2022-11-20T01:06:25;24.33;;;15.88;;
5977;SDS011;3015;51.390;12.256;2022-11-20T01:08:53;27.38;;;15.50;;
5977;SDS011;3015;51.390;12.256;2022-11-20T01:11:31;22.23;;;15.75;;
5977;SDS011;3015;51.390;12.256;2022-11-20T01:13:59;20.20;;;14.18;;
5977;SDS011;3015;51.390;12.256;2022-11-20T01:18:59;19.92;;;15.15;;
5977;SDS011;3015;51.390;12.256;2022-11-20T01:21:28;22.75;;;16.20;;
5977;SDS011;3015;51.390;12.256;2022-11-20T01:23:58;22.63;;;14.65;;
5977;SDS011;3015;51.390;12.256;2022-11-20T01:26:25;22.27;;;14.52;;
5977;SDS011;3015;51.390;12.256;2022-11-20T01:28:53;23.45;;;15.82;;
5977;SDS011;3015;51.390;12.256;2022-11-20T01:33:51;23.90;;;15.07;;
5977;SDS011;3015;51.390;12.256;2022-11-20T01:36:18;24.27;;;13.75;;
5977;SDS011;3015;51.390;12.256;2022-11-20T01:38:46;18.10;;;14.13;;
5977;SDS011;3015;51.390;12.256;2022-11-20T01:41:12;26.67;;;14.57;;
5977;SDS011;3015;51.390;12.256;2022-11-20T01:44:00;24.63;;;15.15;;
5977;SDS011;3015;51.390;12.256;2022-11-20T01:46:26;22.48;;;16.17;;
5977;SDS011;3015;51.390;12.256;2022-11-20T01:51:32;24.85;;;15.93;;
5977;SDS011;3015;51.390;12.256;2022-11-20T01:54:10;24.00;;;14.85;;
5977;SDS011;3015;51.390;12.256;2022-11-20T01:56:41;22.98;;;14.88;;
5977;SDS011;3015;51.390;12.256;2022-11-20T01:59:10;22.00;;;16.08;;
5977;SDS011;3015;51.390;12.256;2022-11-20T02:01:38;23.48;;;17.08;;
5977;SDS011;3015;51.390;12.256;2022-11-20T02:04:04;23.67;;;15.50;;
5977;SDS011;3015;51.390;12.256;2022-11-20T02:06:35;21.73;;;16.17;;
5977;SDS011;3015;51.390;12.256;2022-11-20T02:09:05;22.75;;;16.35;;
5977;SDS011;3015;51.390;12.256;2022-11-20T02:11:31;24.37;;;16.50;;
5977;SDS011;3015;51.390;12.256;2022-11-20T02:13:57;19.33;;;13.80;;
5977;SDS011;3015;51.390;12.256;2022-11-20T02:16:25;19.17;;;13.60;;
5977;SDS011;3015;51.390;12.256;2022-11-20T02:18:51;16.30;;;13.75;;
5977;SDS011;3015;51.390;12.256;2022-11-20T02:21:33;23.75;;;15.57;;
5977;SDS011;3015;51.390;12.256;2022-11-20T02:24:18;20.70;;;14.45;;
5977;SDS011;3015;51.390;12.256;2022-11-20T02:26:48;22.42;;;14.85;;
5977;SDS011;3015;51.390;12.256;2022-11-20T02:29:28;23.52;;;13.73;;
5977;SDS011;3015;51.390;12.256;2022-11-20T02:31:59;22.30;;;13.45;;
5977;SDS011;3015;51.390;12.256;2022-11-20T02:34:26;18.00;;;13.93;;
5977;SDS011;3015;51.390;12.256;2022-11-20T02:36:53;22.58;;;14.70;;
5977;SDS011;3015;51.390;12.256;2022-11-20T02:39:20;20.73;;;14.48;;
5977;SDS011;3015;51.390;12.256;2022-11-20T02:41:48;23.52;;;15.15;;
5977;SDS011;3015;51.390;12.256;2022-11-20T02:44:13;21.13;;;14.20;;
5977;SDS011;3015;51.390;12.256;2022-11-20T02:46:39;22.70;;;15.50;;
5977;SDS011;3015;51.390;12.256;2022-11-20T02:49:05;21.10;;;13.60;;
5977;SDS011;3015;51.390;12.256;2022-11-20T02:51:31;17.60;;;13.63;;
5977;SDS011;3015;51.390;12.256;2022-11-20T02:53:57;17.85;;;13.40;;
5977;SDS011;3015;51.390;12.256;2022-11-20T02:56:23;18.77;;;14.20;;
5977;SDS011;3015;51.390;12.256;2022-11-20T02:58:49;22.35;;;15.48;;
5977;SDS011;3015;51.390;12.256;2022-11-20T03:01:14;18.17;;;13.50;;
5977;SDS011;3015;51.390;12.256;2022-11-20T03:03:40;21.37;;;14.00;;
5977;SDS011;3015;51.390;12.256;2022-11-20T03:06:05;28.10;;;15.23;;
5977;SDS011;3015;51.390;12.256;2022-11-20T03:08:31;20.33;;;14.37;;
5977;SDS011;3015;51.390;12.256;2022-11-20T03:11:01;22.07;;;16.10;;
5977;SDS011;3015;51.390;12.256;2022-11-20T03:13:31;15.65;;;13.70;;
5977;SDS011;3015;51.390;12.256;2022-11-20T03:15:57;17.88;;;12.43;;
5977;SDS011;3015;51.390;12.256;2022-11-20T03:18:23;16.53;;;11.57;;
5977;SDS011;3015;51.390;12.256;2022-11-20T03:20:48;19.03;;;13.87;;
5977;SDS011;3015;51.390;12.256;2022-11-20T03:23:14;21.83;;;13.10;;
5977;SDS011;3015;51.390;12.256;2022-11-20T03:25:40;20.03;;;13.40;;
5977;SDS011;3015;51.390;12.256;2022-11-20T03:28:05;20.33;;;14.30;;
5977;SDS011;3015;51.390;12.256;2022-11-20T03:30:31;20.80;;;13.87;;
5977;SDS011;3015;51.390;12.256;2022-11-20T03:32:56;20.63;;;13.83;;
5977;SDS011;3015;51.390;12.256;2022-11-20T03:35:22;22.43;;;15.53;;
5977;SDS011;3015;51.390;12.256;2022-11-20T03:37:47;19.63;;;13.87;;
5977;SDS011;3015;51.390;12.256;2022-11-20T03:40:13;25.20;;;14.60;;
5977;SDS011;3015;51.390;12.256;2022-11-20T03:42:39;20.37;;;14.03;;
5977;SDS011;3015;51.390;12.256;2022-11-20T03:45:10;23.92;;;13.50;;
5977;SDS011;3015;51.390;12.256;2022-11-20T03:47:37;21.00;;;14.65;;
5977;SDS011;3015;51.390;12.256;2022-11-20T03:50:03;17.97;;;12.60;;
5977;SDS011;3015;51.390;12.256;2022-11-20T03:52:29;20.60;;;14.27;;
5977;SDS011;3015;51.390;12.256;2022-11-20T03:54:54;17.90;;;13.10;;
5977;SDS011;3015;51.390;12.256;2022-11-20T03:57:20;21.87;;;12.80;;
5977;SDS011;3015;51.390;12.256;2022-11-20T03:59:45;21.93;;;14.80;;
5977;SDS011;3015;51.390;12.256;2022-11-20T04:02:11;19.33;;;14.20;;
5977;SDS011;3015;51.390;12.256;2022-11-20T04:04:37;20.43;;;15.70;;
5977;SDS011;3015;51.390;12.256;2022-11-20T04:07:02;20.20;;;14.53;;
5977;SDS011;3015;51.390;12.256;2022-11-20T04:09:28;19.90;;;12.77;;
5977;SDS011;3015;51.390;12.256;2022-11-20T04:11:53;19.50;;;13.40;;
5977;SDS011;3015;51.390;12.256;2022-11-20T04:14:19;22.53;;;15.20;;
5977;SDS011;3015;51.390;12.256;2022-11-20T04:16:44;21.70;;;13.77;;
5977;SDS011;3015;51.390;12.256;2022-11-20T04:19:11;19.53;;;12.83;;
5977;SDS011;3015;51.390;12.256;2022-11-20T04:21:38;21.73;;;13.48;;
5977;SDS011;3015;51.390;12.256;2022-11-20T04:24:04;22.23;;;14.67;;
5977;SDS011;3015;51.390;12.256;2022-11-20T04:26:30;21.50;;;13.68;;
5977;SDS011;3015;51.390;12.256;2022-11-20T04:28:57;17.37;;;12.97;;
5977;SDS011;3015;51.390;12.256;2022-11-20T04:31:25;23.58;;;14.60;;
5977;SDS011;3015;51.390;12.256;2022-11-20T04:33:52;23.70;;;14.90;;
5977;SDS011;3015;51.390;12.256;2022-11-20T04:36:19;25.37;;;14.90;;
5977;SDS011;3015;51.390;12.256;2022-11-20T04:38:50;20.38;;;13.88;;
5977;SDS011;3015;51.390;12.256;2022-11-20T04:41:18;20.50;;;13.60;;
5977;SDS011;3015;51.390;12.256;2022-11-20T04:43:46;20.58;;;13.60;;
5977;SDS011;3015;51.390;12.256;2022-11-20T04:46:17;25.20;;;15.65;;
5977;SDS011;3015;51.390;12.256;2022-11-20T04:48:44;22.38;;;13.85;;
5977;SDS011;3015;51.390;12.256;2022-11-20T04:51:10;16.97;;;12.20;;
5977;SDS011;3015;51.390;12.256;2022-11-20T04:53:36;24.40;;;14.50;;
5977;SDS011;3015;51.390;12.256;2022-11-20T04:56:02;18.67;;;13.37;;
5977;SDS011;3015;51.390;12.256;2022-11-20T04:58:29;19.02;;;14.77;;
5977;SDS011;3015;51.390;12.256;2022-11-20T05:01:09;24.60;;;14.03;;
5977;SDS011;3015;51.390;12.256;2022-11-20T05:03:37;18.52;;;12.48;;
5977;SDS011;3015;51.390;12.256;2022-11-20T05:06:04;25.77;;;13.95;;
5977;SDS011;3015;51.390;12.256;2022-11-20T05:08:31;18.52;;;13.02;;
5977;SDS011;3015;51.390;12.256;2022-11-20T05:13:32;19.38;;;12.70;;
5977;SDS011;3015;51.390;12.256;2022-11-20T05:16:02;18.43;;;12.37;;
5977;SDS011;3015;51.390;12.256;2022-11-20T05:18:28;25.65;;;14.13;;
5977;SDS011;3015;51.390;12.256;2022-11-20T05:20:54;20.97;;;14.00;;
5977;SDS011;3015;51.390;12.256;2022-11-20T05:23:21;17.70;;;12.50;;
5977;SDS011;3015;51.390;12.256;2022-11-20T05:25:46;24.53;;;14.17;;
5977;SDS011;3015;51.390;12.256;2022-11-20T05:28:12;18.80;;;12.40;;
5977;SDS011;3015;51.390;12.256;2022-11-20T05:30:38;18.33;;;12.00;;
5977;SDS011;3015;51.390;12.256;2022-11-20T05:33:03;29.73;;;15.73;;
5977;SDS011;3015;51.390;12.256;2022-11-20T05:35:29;21.50;;;13.10;;
5977;SDS011;3015;51.390;12.256;2022-11-20T05:37:54;22.70;;;13.00;;
5977;SDS011;3015;51.390;12.256;2022-11-20T05:40:20;19.13;;;12.80;;
5977;SDS011;3015;51.390;12.256;2022-11-20T05:42:45;20.73;;;14.07;;
5977;SDS011;3015;51.390;12.256;2022-11-20T05:45:11;23.40;;;13.63;;
5977;SDS011;3015;51.390;12.256;2022-11-20T05:47:36;21.17;;;12.63;;
5977;SDS011;3015;51.390;12.256;2022-11-20T05:50:02;28.50;;;14.13;;
5977;SDS011;3015;51.390;12.256;2022-11-20T05:52:28;17.30;;;13.27;;
5977;SDS011;3015;51.390;12.256;2022-11-20T05:54:54;25.35;;;14.07;;
5977;SDS011;3015;51.390;12.256;2022-11-20T05:57:20;26.63;;;13.73;;
5977;SDS011;3015;51.390;12.256;2022-11-20T05:59:46;21.90;;;13.37;;
5977;SDS011;3015;51.390;12.256;2022-11-20T06:02:11;23.00;;;14.03;;
5977;SDS011;3015;51.390;12.256;2022-11-20T06:04:37;26.70;;;17.87;;
5977;SDS011;3015;51.390;12.256;2022-11-20T06:07:04;25.37;;;14.37;;
5977;SDS011;3015;51.390;12.256;2022-11-20T06:09:30;23.90;;;14.68;;
5977;SDS011;3015;51.390;12.256;2022-11-20T06:11:56;24.03;;;14.23;;
5977;SDS011;3015;51.390;12.256;2022-11-20T06:14:21;26.53;;;16.47;;
5977;SDS011;3015;51.390;12.256;2022-11-20T06:16:47;25.27;;;15.50;;
5977;SDS011;3015;51.390;12.256;2022-11-20T06:19:12;33.03;;;18.33;;
5977;SDS011;3015;51.390;12.256;2022-11-20T06:21:38;30.93;;;17.33;;
5977;SDS011;3015;51.390;12.256;2022-11-20T06:24:04;27.70;;;16.73;;
5977;SDS011;3015;51.390;12.256;2022-11-20T06:26:30;20.87;;;15.70;;
5977;SDS011;3015;51.390;12.256;2022-11-20T06:28:55;24.60;;;16.07;;
5977;SDS011;3015;51.390;12.256;2022-11-20T06:31:22;26.30;;;16.20;;
5977;SDS011;3015;51.390;12.256;2022-11-20T06:33:48;25.25;;;16.10;;
5977;SDS011;3015;51.390;12.256;2022-11-20T06:36:15;26.25;;;16.77;;
5977;SDS011;3015;51.390;12.256;2022-11-20T06:38:42;26.20;;;16.70;;
5977;SDS011;3015;51.390;12.256;2022-11-20T06:41:15;25.30;;;16.00;;
5977;SDS011;3015;51.390;12.256;2022-11-20T06:43:42;25.33;;;14.93;;
5977;SDS011;3015;51.390;12.256;2022-11-20T06:46:09;27.13;;;17.23;;
5977;SDS011;3015;51.390;12.256;2022-11-20T06:48:35;22.58;;;14.00;;
5977;SDS011;3015;51.390;12.256;2022-11-20T06:51:05;25.80;;;15.87;;
5977;SDS011;3015;51.390;12.256;2022-11-20T06:53:31;25.75;;;16.83;;
5977;SDS011;3015;51.390;12.256;2022-11-20T06:55:57;29.65;;;16.75;;
5977;SDS011;3015;51.390;12.256;2022-11-20T06:58:23;28.37;;;17.00;;
5977;SDS011;3015;51.390;12.256;2022-11-20T07:00:52;29.55;;;18.00;;
5977;SDS011;3015;51.390;12.256;2022-11-20T07:03:17;27.47;;;17.70;;
5977;SDS011;3015;51.390;12.256;2022-11-20T07:05:43;23.80;;;15.90;;
5977;SDS011;3015;51.390;12.256;2022-11-20T07:08:11;24.42;;;15.45;;
5977;SDS011;3015;51.390;12.256;2022-11-20T07:10:37;30.45;;;17.45;;
5977;SDS011;3015;51.390;12.256;2022-11-20T07:13:03;27.43;;;15.93;;
5977;SDS011;3015;51.390;12.256;2022-11-20T07:15:29;29.13;;;16.13;;
5977;SDS011;3015;51.390;12.256;2022-11-20T07:17:55;30.83;;;16.10;;
5977;SDS011;3015;51.390;12.256;2022-11-20T07:20:23;30.27;;;16.80;;
5977;SDS011;3015;51.390;12.256;2022-11-20T07:22:52;25.20;;;16.30;;
5977;SDS011;3015;51.390;12.256;2022-11-20T07:25:22;25.33;;;16.75;;
5977;SDS011;3015;51.390;12.256;2022-11-20T07:27:48;31.08;;;17.90;;
5977;SDS011;3015;51.390;12.256;2022-11-20T07:30:14;31.60;;;18.00;;
5977;SDS011;3015;51.390;12.256;2022-11-20T07:32:40;23.45;;;16.25;;
5977;SDS011;3015;51.390;12.256;2022-11-20T07:35:06;28.67;;;18.10;;
5977;SDS011;3015;51.390;12.256;2022-11-20T07:37:35;21.13;;;13.80;;
5977;SDS011;3015;51.390;12.256;2022-11-20T07:40:01;27.45;;;16.85;;
5977;SDS011;3015;51.390;12.256;2022-11-20T07:42:27;29.93;;;16.07;;
5977;SDS011;3015;51.390;12.256;2022-11-20T07:44:52;30.10;;;17.00;;
5977;SDS011;3015;51.390;12.256;2022-11-20T07:47:18;35.37;;;21.17;;
5977;SDS011;3015;51.390;12.256;2022-11-20T07:49:43;31.40;;;17.73;;
5977;SDS011;3015;51.390;12.256;2022-11-20T07:52:09;28.33;;;18.27;;
5977;SDS011;3015;51.390;12.256;2022-11-20T07:54:34;29.87;;;15.33;;
5977;SDS011;3015;51.390;12.256;2022-11-20T07:57:00;31.70;;;17.90;;
5977;SDS011;3015;51.390;12.256;2022-11-20T07:59:26;35.40;;;20.73;;
5977;SDS011;3015;51.390;12.256;2022-11-20T08:01:51;31.97;;;18.60;;
5977;SDS011;3015;51.390;12.256;2022-11-20T08:04:17;30.47;;;17.43;;
5977;SDS011;3015;51.390;12.256;2022-11-20T08:06:42;29.23;;;16.67;;
5977;SDS011;3015;51.390;12.256;2022-11-20T08:09:08;29.20;;;17.70;;
5977;SDS011;3015;51.390;12.256;2022-11-20T08:11:34;31.63;;;16.88;;
5977;SDS011;3015;51.390;12.256;2022-11-20T08:14:18;25.50;;;16.05;;
5977;SDS011;3015;51.390;12.256;2022-11-20T08:16:45;23.63;;;16.83;;
5977;SDS011;3015;51.390;12.256;2022-11-20T08:19:13;26.73;;;17.30;;
5977;SDS011;3015;51.390;12.256;2022-11-20T08:21:39;24.80;;;15.80;;
5977;SDS011;3015;51.390;12.256;2022-11-20T08:24:06;27.90;;;16.10;;
5977;SDS011;3015;51.390;12.256;2022-11-20T08:26:32;22.90;;;16.38;;
5977;SDS011;3015;51.390;12.256;2022-11-20T08:28:59;23.00;;;15.15;;
5977;SDS011;3015;51.390;12.256;2022-11-20T08:31:25;20.70;;;16.33;;
5977;SDS011;3015;51.390;12.256;2022-11-20T08:33:52;20.33;;;17.40;;
5977;SDS011;3015;51.390;12.256;2022-11-20T08:36:18;23.35;;;17.20;;
5977;SDS011;3015;51.390;12.256;2022-11-20T08:38:48;22.88;;;16.90;;
5977;SDS011;3015;51.390;12.256;2022-11-20T08:41:15;21.45;;;15.57;;
5977;SDS011;3015;51.390;12.256;2022-11-20T08:43:54;20.75;;;15.48;;
5977;SDS011;3015;51.390;12.256;2022-11-20T08:46:22;24.65;;;17.50;;
5977;SDS011;3015;51.390;12.256;2022-11-20T08:48:49;21.50;;;15.90;;
5977;SDS011;3015;51.390;12.256;2022-11-20T08:51:14;20.53;;;15.53;;
5977;SDS011;3015;51.390;12.256;2022-11-20T08:53:40;24.73;;;17.75;;
5977;SDS011;3015;51.390;12.256;2022-11-20T08:56:07;20.52;;;15.00;;
5977;SDS011;3015;51.390;12.256;2022-11-20T08:58:34;21.83;;;16.20;;
5977;SDS011;3015;51.390;12.256;2022-11-20T09:01:00;29.73;;;19.23;;
5977;SDS011;3015;51.390;12.256;2022-11-20T09:03:26;23.90;;;17.80;;
5977;SDS011;3015;51.390;12.256;2022-11-20T09:06:02;20.50;;;16.23;;
5977;SDS011;3015;51.390;12.256;2022-11-20T09:08:30;24.20;;;17.88;;
5977;SDS011;3015;51.390;12.256;2022-11-20T09:10:56;24.98;;;17.13;;
5977;SDS011;3015;51.390;12.256;2022-11-20T09:13:23;25.38;;;17.65;;
5977;SDS011;3015;51.390;12.256;2022-11-20T09:15:56;21.58;;;16.10;;
5977;SDS011;3015;51.390;12.256;2022-11-20T09:18:23;26.85;;;18.55;;
5977;SDS011;3015;51.390;12.256;2022-11-20T09:20:50;20.75;;;16.73;;
5977;SDS011;3015;51.390;12.256;2022-11-20T09:23:15;23.00;;;18.30;;
5977;SDS011;3015;51.390;12.256;2022-11-20T09:25:41;26.10;;;18.80;;
5977;SDS011;3015;51.390;12.256;2022-11-20T09:28:07;23.70;;;17.67;;
5977;SDS011;3015;51.390;12.256;2022-11-20T09:30:33;22.93;;;17.70;;
5977;SDS011;3015;51.390;12.256;2022-11-20T09:32:58;23.40;;;18.27;;
5977;SDS011;3015;51.390;12.256;2022-11-20T09:35:24;24.40;;;17.73;;
5977;SDS011;3015;51.390;12.256;2022-11-20T09:37:49;22.70;;;16.80;;
5977;SDS011;3015;51.390;12.256;2022-11-20T09:40:28;24.63;;;17.47;;
5977;SDS011;3015;51.390;12.256;2022-11-20T09:42:59;25.50;;;17.83;;
5977;SDS011;3015;51.390;12.256;2022-11-20T09:48:39;21.30;;;17.27;;
5977;SDS011;3015;51.390;12.256;2022-11-20T09:51:46;24.27;;;17.88;;
5977;SDS011;3015;51.390;12.256;2022-11-20T09:54:35;19.08;;;15.93;;
5977;SDS011;3015;51.390;12.256;2022-11-20T09:59:55;24.70;;;17.95;;
5977;SDS011;3015;51.390;12.256;2022-11-20T10:02:34;26.88;;;21.90;;
5977;SDS011;3015;51.390;12.256;2022-11-20T10:05:24;22.35;;;17.30;;
5977;SDS011;3015;51.390;12.256;2022-11-20T10:21:59;30.45;;;17.70;;
5977;SDS011;3015;51.390;12.256;2022-11-20T10:24:55;22.98;;;16.73;;
5977;SDS011;3015;51.390;12.256;2022-11-20T10:32:36;26.17;;;17.00;;
5977;SDS011;3015;51.390;12.256;2022-11-20T10:35:14;23.33;;;15.57;;
5977;SDS011;3015;51.390;12.256;2022-11-20T10:37:55;20.27;;;14.32;;
5977;SDS011;3015;51.390;12.256;2022-11-20T10:43:12;24.05;;;16.20;;
5977;SDS011;3015;51.390;12.256;2022-11-20T10:45:51;22.70;;;15.95;;
5977;SDS011;3015;51.390;12.256;2022-11-20T10:48:23;22.67;;;15.48;;
5977;SDS011;3015;51.390;12.256;2022-11-20T10:53:55;16.83;;;12.25;;
5977;SDS011;3015;51.390;12.256;2022-11-20T10:56:39;18.55;;;14.93;;
5977;SDS011;3015;51.390;12.256;2022-11-20T11:02:00;15.95;;;12.35;;
5977;SDS011;3015;51.390;12.256;2022-11-20T11:09:52;16.80;;;12.77;;
5977;SDS011;3015;51.390;12.256;2022-11-20T11:12:20;17.90;;;14.40;;
5977;SDS011;3015;51.390;12.256;2022-11-20T11:14:49;17.83;;;12.63;;
5977;SDS011;3015;51.390;12.256;2022-11-20T11:17:28;17.05;;;13.32;;
5977;SDS011;3015;51.390;12.256;2022-11-20T11:22:29;20.08;;;14.48;;
5977;SDS011;3015;51.390;12.256;2022-11-20T11:24:57;19.85;;;13.95;;
5977;SDS011;3015;51.390;12.256;2022-11-20T11:27:24;20.60;;;13.50;;
5977;SDS011;3015;51.390;12.256;2022-11-20T11:29:49;15.60;;;11.40;;
5977;SDS011;3015;51.390;12.256;2022-11-20T11:32:25;17.65;;;11.73;;
5977;SDS011;3015;51.390;12.256;2022-11-20T11:35:02;15.47;;;12.20;;
5977;SDS011;3015;51.390;12.256;2022-11-20T11:37:33;13.98;;;11.18;;
5977;SDS011;3015;51.390;12.256;2022-11-20T11:40:01;13.98;;;10.77;;
5977;SDS011;3015;51.390;12.256;2022-11-20T11:42:29;15.88;;;12.27;;
5977;SDS011;3015;51.390;12.256;2022-11-20T11:44:55;15.77;;;12.20;;
5977;SDS011;3015;51.390;12.256;2022-11-20T11:50:02;14.33;;;11.53;;
5977;SDS011;3015;51.390;12.256;2022-11-20T11:55:42;16.00;;;10.35;;
5977;SDS011;3015;51.390;12.256;2022-11-20T12:00:41;15.95;;;10.57;;
5977;SDS011;3015;51.390;12.256;2022-11-20T12:03:34;10.43;;;8.85;;
5977;SDS011;3015;51.390;12.256;2022-11-20T12:06:06;11.05;;;9.13;;
5977;SDS011;3015;51.390;12.256;2022-11-20T12:08:40;13.35;;;10.80;;
5977;SDS011;3015;51.390;12.256;2022-11-20T12:13:45;13.63;;;10.73;;
5977;SDS011;3015;51.390;12.256;2022-11-20T12:16:21;15.75;;;10.68;;
5977;SDS011;3015;51.390;12.256;2022-11-20T12:18:51;13.00;;;10.50;;
5977;SDS011;3015;51.390;12.256;2022-11-20T12:34:27;14.90;;;10.73;;
5977;SDS011;3015;51.390;12.256;2022-11-20T12:39:34;20.83;;;13.98;;
5977;SDS011;3015;51.390;12.256;2022-11-20T12:42:37;16.70;;;13.68;;
5977;SDS011;3015;51.390;12.256;2022-11-20T12:45:22;18.00;;;14.30;;
5977;SDS011;3015;51.390;12.256;2022-11-20T12:56:50;17.00;;;11.80;;
5977;SDS011;3015;51.390;12.256;2022-11-20T12:59:36;12.02;;;10.68;;
5977;SDS011;3015;51.390;12.256;2022-11-20T13:07:38;15.77;;;13.17;;
5977;SDS011;3015;51.390;12.256;2022-11-20T13:10:05;18.30;;;13.60;;
5977;SDS011;3015;51.390;12.256;2022-11-20T13:12:47;20.35;;;13.07;;
5977;SDS011;3015;51.390;12.256;2022-11-20T13:18:03;16.85;;;11.32;;
5977;SDS011;3015;51.390;12.256;2022-11-20T13:20:32;16.85;;;12.00;;
5977;SDS011;3015;51.390;12.256;2022-11-20T13:22:59;15.70;;;14.15;;
5977;SDS011;3015;51.390;12.256;2022-11-20T13:25:25;16.37;;;13.20;;
5977;SDS011;3015;51.390;12.256;2022-11-20T13:27:56;15.70;;;13.27;;
5977;SDS011;3015;51.390;12.256;2022-11-20T13:30:27;15.10;;;11.65;;
5977;SDS011;3015;51.390;12.256;2022-11-20T13:32:59;17.02;;;12.38;;
5977;SDS011;3015;51.390;12.256;2022-11-20T13:35:37;15.95;;;12.45;;
5977;SDS011;3015;51.390;12.256;2022-11-20T13:38:13;14.77;;;12.15;;
5977;SDS011;3015;51.390;12.256;2022-11-20T13:45:58;18.95;;;13.32;;
5977;SDS011;3015;51.390;12.256;2022-11-20T13:48:26;19.02;;;14.68;;
5977;SDS011;3015;51.390;12.256;2022-11-20T13:56:05;15.43;;;11.35;;
5977;SDS011;3015;51.390;12.256;2022-11-20T14:01:16;16.25;;;12.18;;
5977;SDS011;3015;51.390;12.256;2022-11-20T14:03:46;18.35;;;13.38;;
5977;SDS011;3015;51.390;12.256;2022-11-20T14:06:20;15.88;;;11.75;;
5977;SDS011;3015;51.390;12.256;2022-11-20T14:08:52;15.90;;;12.60;;
5977;SDS011;3015;51.390;12.256;2022-11-20T14:11:22;14.07;;;11.95;;
5977;SDS011;3015;51.390;12.256;2022-11-20T14:16:23;14.93;;;11.20;;
5977;SDS011;3015;51.390;12.256;2022-11-20T14:18:50;14.07;;;10.80;;
5977;SDS011;3015;51.390;12.256;2022-11-20T14:21:26;14.33;;;11.37;;
5977;SDS011;3015;51.390;12.256;2022-11-20T14:24:27;15.57;;;11.13;;
5977;SDS011;3015;51.390;12.256;2022-11-20T14:26:48;17.48;;;11.45;;
5977;SDS011;3015;51.390;12.256;2022-11-20T14:29:16;12.77;;;11.45;;
5977;SDS011;3015;51.390;12.256;2022-11-20T14:31:44;14.40;;;11.70;;
5977;SDS011;3015;51.390;12.256;2022-11-20T14:34:20;12.55;;;10.15;;
5977;SDS011;3015;51.390;12.256;2022-11-20T14:36:49;12.52;;;11.02;;
5977;SDS011;3015;51.390;12.256;2022-11-20T14:39:20;15.30;;;11.73;;
5977;SDS011;3015;51.390;12.256;2022-11-20T14:41:50;11.82;;;9.80;;
5977;SDS011;3015;51.390;12.256;2022-11-20T14:44:17;13.45;;;9.88;;
5977;SDS011;3015;51.390;12.256;2022-11-20T14:46:45;12.75;;;9.43;;
5977;SDS011;3015;51.390;12.256;2022-11-20T14:49:10;13.83;;;9.50;;
5977;SDS011;3015;51.390;12.256;2022-11-20T14:51:38;12.05;;;9.75;;
5977;SDS011;3015;51.390;12.256;2022-11-20T14:54:11;12.65;;;9.40;;
5977;SDS011;3015;51.390;12.256;2022-11-20T14:56:41;12.05;;;10.68;;
5977;SDS011;3015;51.390;12.256;2022-11-20T14:59:08;13.13;;;9.00;;
5977;SDS011;3015;51.390;12.256;2022-11-20T15:01:34;12.90;;;8.95;;
5977;SDS011;3015;51.390;12.256;2022-11-20T15:04:04;12.85;;;10.13;;
5977;SDS011;3015;51.390;12.256;2022-11-20T15:06:37;11.13;;;9.25;;
5977;SDS011;3015;51.390;12.256;2022-11-20T15:09:14;13.90;;;11.00;;
5977;SDS011;3015;51.390;12.256;2022-11-20T15:11:40;15.68;;;10.48;;
5977;SDS011;3015;51.390;12.256;2022-11-20T15:14:21;11.65;;;10.55;;
5977;SDS011;3015;51.390;12.256;2022-11-20T15:16:48;12.65;;;10.68;;
5977;SDS011;3015;51.390;12.256;2022-11-20T15:19:17;14.77;;;10.70;;
5977;SDS011;3015;51.390;12.256;2022-11-20T15:21:52;15.27;;;12.30;;
5977;SDS011;3015;51.390;12.256;2022-11-20T15:24:18;12.07;;;10.95;;
5977;SDS011;3015;51.390;12.256;2022-11-20T15:26:44;15.63;;;12.15;;
5977;SDS011;3015;51.390;12.256;2022-11-20T15:29:13;14.37;;;10.40;;
5977;SDS011;3015;51.390;12.256;2022-11-20T15:31:43;14.20;;;10.45;;
5977;SDS011;3015;51.390;12.256;2022-11-20T15:34:16;16.60;;;11.07;;
5977;SDS011;3015;51.390;12.256;2022-11-20T15:36:42;13.00;;;10.38;;
5977;SDS011;3015;51.390;12.256;2022-11-20T15:39:09;13.85;;;11.63;;
5977;SDS011;3015;51.390;12.256;2022-11-20T15:41:36;13.25;;;10.95;;
5977;SDS011;3015;51.390;12.256;2022-11-20T15:44:03;13.70;;;11.80;;
5977;SDS011;3015;51.390;12.256;2022-11-20T15:46:30;17.08;;;12.20;;
5977;SDS011;3015;51.390;12.256;2022-11-20T15:49:02;17.20;;;13.00;;
5977;SDS011;3015;51.390;12.256;2022-11-20T15:51:32;25.75;;;17.00;;
5977;SDS011;3015;51.390;12.256;2022-11-20T15:54:00;21.33;;;19.02;;
5977;SDS011;3015;51.390;12.256;2022-11-20T15:56:34;30.92;;;20.80;;
5977;SDS011;3015;51.390;12.256;2022-11-20T15:58:59;22.00;;;16.80;;
5977;SDS011;3015;51.390;12.256;2022-11-20T16:01:25;16.77;;;13.63;;
5977;SDS011;3015;51.390;12.256;2022-11-20T16:03:51;18.45;;;14.25;;
5977;SDS011;3015;51.390;12.256;2022-11-20T16:06:19;18.80;;;13.75;;
5977;SDS011;3015;51.390;12.256;2022-11-20T16:08:46;21.05;;;15.98;;
5977;SDS011;3015;51.390;12.256;2022-11-20T16:11:12;20.83;;;16.23;;
5977;SDS011;3015;51.390;12.256;2022-11-20T16:13:41;18.58;;;15.18;;
5977;SDS011;3015;51.390;12.256;2022-11-20T16:16:27;22.35;;;14.73;;
5977;SDS011;3015;51.390;12.256;2022-11-20T16:18:55;18.85;;;15.10;;
5977;SDS011;3015;51.390;12.256;2022-11-20T16:21:21;20.83;;;15.55;;
5977;SDS011;3015;51.390;12.256;2022-11-20T16:23:56;21.73;;;15.48;;
5977;SDS011;3015;51.390;12.256;2022-11-20T16:26:23;20.73;;;15.23;;
5977;SDS011;3015;51.390;12.256;2022-11-20T16:28:49;19.60;;;15.15;;
5977;SDS011;3015;51.390;12.256;2022-11-20T16:31:16;25.37;;;16.73;;
5977;SDS011;3015;51.390;12.256;2022-11-20T16:33:42;18.33;;;13.85;;
5977;SDS011;3015;51.390;12.256;2022-11-20T16:36:14;14.07;;;11.93;;